createdAt,value
2022-09-07T00:02:20.603Z,2.50
2022-09-07T00:04:47.042Z,2.90
2022-09-07T00:07:13.808Z,3.45
2022-09-07T00:09:40.238Z,4.15
2022-09-07T00:12:06.820Z,3.95
2022-09-07T00:14:34.538Z,3.60
2022-09-07T00:17:00.982Z,3.38
2022-09-07T00:19:27.433Z,3.60
2022-09-07T00:21:53.884Z,3.95
2022-09-07T00:24:20.361Z,4.03
2022-09-07T00:26:46.827Z,3.88
2022-09-07T00:29:13.271Z,3.88
2022-09-07T00:31:39.873Z,4.50
2022-09-07T00:34:06.582Z,5.00
2022-09-07T00:36:33.039Z,4.35
2022-09-07T00:38:59.566Z,4.13
2022-09-07T00:41:26.062Z,4.65
2022-09-07T00:43:55.897Z,4.55
2022-09-07T00:46:23.897Z,4.38
2022-09-07T00:49:10.634Z,4.20
2022-09-07T00:51:46.283Z,3.88
2022-09-07T00:54:18.873Z,4.70
2022-09-07T00:56:47.081Z,4.43
2022-09-07T00:59:16.600Z,4.70
2022-09-07T01:01:45.131Z,4.93
2022-09-07T01:04:12.016Z,4.80
2022-09-07T01:06:40.003Z,5.53
2022-09-07T01:09:14.242Z,5.15
2022-09-07T01:11:43.678Z,4.65
2022-09-07T01:14:14.961Z,5.90
2022-09-07T01:17:14.710Z,4.38
2022-09-07T01:20:02.986Z,4.97
2022-09-07T01:22:52.741Z,5.00
2022-09-07T01:25:41.227Z,5.63
2022-09-07T01:28:18.983Z,5.32
2022-09-07T01:30:55.744Z,5.15
2022-09-07T01:33:44.372Z,5.20
2022-09-07T01:36:20.231Z,4.80
2022-09-07T01:38:58.893Z,5.00
2022-09-07T01:41:42.690Z,5.75
2022-09-07T01:44:18.694Z,4.60
2022-09-07T01:47:07.721Z,5.28
2022-09-07T01:49:50.155Z,5.55
2022-09-07T01:52:32.064Z,4.72
2022-09-07T01:55:11.329Z,4.78
2022-09-07T01:57:45.956Z,4.78
2022-09-07T02:00:18.274Z,4.82
2022-09-07T02:03:08.664Z,5.37
2022-09-07T02:05:54.677Z,4.60
2022-09-07T02:08:32.469Z,4.97
2022-09-07T02:11:07.229Z,4.63
2022-09-07T02:13:50.922Z,5.35
2022-09-07T02:16:26.768Z,4.38
2022-09-07T02:18:56.450Z,5.93
2022-09-07T02:21:30.972Z,5.03
2022-09-07T02:24:06.211Z,4.30
2022-09-07T02:26:36.672Z,5.25
2022-09-07T02:29:03.540Z,4.30
2022-09-07T02:31:30.189Z,3.97
2022-09-07T02:33:57.130Z,3.95
2022-09-07T02:36:28.362Z,3.83
2022-09-07T02:38:54.816Z,4.32
2022-09-07T02:41:39.533Z,4.38
2022-09-07T02:44:15.570Z,4.03
2022-09-07T02:47:04.009Z,4.45
2022-09-07T02:50:05.789Z,3.92
2022-09-07T02:52:55.171Z,4.30
2022-09-07T02:55:31.616Z,3.97
2022-09-07T02:58:07.699Z,5.32
2022-09-07T03:00:43.116Z,4.88
2022-09-07T03:03:29.677Z,4.55
2022-09-07T03:06:01.710Z,4.20
2022-09-07T03:08:39.824Z,4.57
2022-09-07T03:11:07.389Z,4.57
2022-09-07T03:13:34.480Z,4.25
2022-09-07T03:16:01.039Z,4.45
2022-09-07T03:18:28.437Z,5.13
2022-09-07T03:20:55.502Z,5.57
2022-09-07T03:23:22.389Z,4.72
2022-09-07T03:25:49.344Z,4.72
2022-09-07T03:28:16.316Z,5.18
2022-09-07T03:30:49.698Z,4.00
2022-09-07T03:33:16.856Z,4.40
2022-09-07T03:35:44.730Z,4.13
2022-09-07T03:38:11.699Z,4.60
2022-09-07T03:40:38.173Z,3.85
2022-09-07T03:43:05.254Z,4.90
2022-09-07T03:45:31.731Z,4.90
2022-09-07T03:47:58.174Z,4.95
2022-09-07T03:50:24.613Z,4.90
2022-09-07T03:52:51.081Z,4.78
2022-09-07T03:55:17.588Z,5.68
2022-09-07T03:57:44.055Z,4.38
2022-09-07T04:00:11.378Z,4.82
2022-09-07T04:02:38.100Z,4.78
2022-09-07T04:05:04.991Z,5.28
2022-09-07T04:07:31.452Z,5.53
2022-09-07T04:09:57.921Z,5.65
2022-09-07T04:12:26.054Z,5.90
2022-09-07T04:14:52.503Z,5.80
2022-09-07T04:17:18.959Z,5.70
2022-09-07T04:19:45.414Z,6.93
2022-09-07T04:22:11.903Z,6.90
2022-09-07T04:24:38.366Z,7.82
2022-09-07T04:27:04.811Z,7.03
2022-09-07T04:29:31.314Z,6.63
2022-09-07T04:31:57.742Z,8.02
2022-09-07T04:34:24.227Z,6.45
2022-09-07T04:36:50.669Z,6.72
2022-09-07T04:39:17.167Z,7.72
2022-09-07T04:41:43.650Z,7.72
2022-09-07T04:44:12.621Z,7.47
2022-09-07T04:46:42.805Z,7.82
2022-09-07T04:49:11.067Z,8.07
2022-09-07T04:51:39.093Z,7.60
2022-09-07T04:54:06.269Z,7.20
2022-09-07T04:56:33.017Z,8.50
2022-09-07T04:59:01.356Z,8.80
2022-09-07T05:01:28.098Z,8.23
2022-09-07T05:03:54.661Z,8.63
2022-09-07T05:06:22.466Z,8.02
2022-09-07T05:08:51.449Z,8.80
2022-09-07T05:11:19.520Z,8.93
2022-09-07T05:13:46.298Z,8.75
2022-09-07T05:16:14.090Z,9.25
2022-09-07T05:18:40.767Z,9.02
2022-09-07T05:21:12.300Z,9.35
2022-09-07T05:23:39.153Z,8.93
2022-09-07T05:26:06.348Z,10.35
2022-09-07T05:28:48.324Z,11.20
2022-09-07T05:31:19.248Z,10.50
2022-09-07T05:36:40.988Z,11.88
2022-09-07T05:39:08.597Z,11.70
2022-09-07T05:41:35.290Z,12.02
2022-09-07T05:46:48.856Z,11.75
2022-09-07T05:49:15.298Z,11.30
2022-09-07T05:51:41.740Z,10.55
2022-09-07T05:54:08.325Z,10.98
2022-09-07T05:56:36.146Z,9.80
2022-09-07T05:59:03.714Z,9.85
2022-09-07T06:01:30.503Z,9.70
2022-09-07T06:03:57.449Z,10.27
2022-09-07T06:06:23.988Z,9.18
2022-09-07T06:08:52.503Z,9.43
2022-09-07T06:11:24.487Z,9.63
2022-09-07T06:13:51.958Z,9.32
2022-09-07T06:16:19.965Z,7.95
2022-09-07T06:18:48.792Z,8.75
2022-09-07T06:21:17.890Z,8.20
2022-09-07T06:23:45.732Z,8.82
2022-09-07T06:26:13.284Z,7.95
2022-09-07T06:28:42.042Z,8.10
2022-09-07T06:31:19.854Z,5.32
2022-09-07T06:33:47.783Z,5.15
2022-09-07T06:36:19.485Z,5.35
2022-09-07T06:38:47.101Z,5.90
2022-09-07T06:44:09.508Z,6.75
2022-09-07T06:49:23.681Z,6.60
2022-09-07T06:51:50.240Z,6.82
2022-09-07T06:57:09.027Z,7.03
2022-09-07T06:59:36.682Z,7.45
2022-09-07T07:02:04.550Z,7.43
2022-09-07T07:04:31.105Z,7.63
2022-09-07T07:06:58.365Z,6.97
2022-09-07T07:09:24.840Z,7.15
2022-09-07T07:11:51.277Z,6.07
2022-09-07T07:14:18.267Z,5.75
2022-09-07T07:16:44.934Z,5.63
2022-09-07T07:19:11.535Z,4.75
2022-09-07T07:22:03.484Z,7.57
2022-09-07T07:24:24.628Z,7.28
2022-09-07T07:26:51.254Z,8.43
2022-09-07T07:29:18.921Z,8.30
2022-09-07T07:31:46.941Z,8.02
2022-09-07T07:34:13.529Z,8.55
2022-09-07T07:36:39.959Z,10.60
2022-09-07T07:39:06.700Z,9.85
2022-09-07T07:44:20.714Z,9.25
2022-09-07T07:46:49.000Z,10.57
2022-09-07T07:49:15.999Z,10.40
2022-09-07T07:54:29.267Z,8.68
2022-09-07T07:56:55.708Z,7.97
2022-09-07T07:59:22.113Z,6.85
2022-09-07T08:01:48.608Z,4.93
2022-09-07T08:04:15.801Z,6.88
2022-09-07T08:06:43.026Z,6.10
2022-09-07T08:09:10.967Z,6.53
2022-09-07T08:11:39.685Z,6.88
2022-09-07T08:14:06.777Z,6.40
2022-09-07T08:16:34.117Z,7.25
2022-09-07T08:19:01.632Z,7.78
2022-09-07T08:21:28.245Z,6.90
2022-09-07T08:23:55.336Z,6.85
2022-09-07T08:26:21.775Z,6.68
2022-09-07T08:28:48.483Z,5.97
2022-09-07T08:31:17.120Z,5.00
2022-09-07T08:33:44.010Z,5.20
2022-09-07T08:36:13.337Z,4.88
2022-09-07T08:38:40.153Z,4.28
2022-09-07T08:41:28.354Z,3.78
2022-09-07T08:44:00.354Z,3.53
2022-09-07T08:46:40.833Z,2.95
2022-09-07T08:49:40.469Z,3.30
2022-09-07T08:52:15.702Z,4.20
2022-09-07T08:54:47.004Z,3.22
2022-09-07T08:57:21.049Z,2.90
2022-09-07T09:00:14.112Z,3.03
2022-09-07T09:05:55.067Z,3.10
2022-09-07T09:08:44.610Z,2.58
2022-09-07T09:11:16.165Z,3.10
2022-09-07T09:14:10.486Z,3.38
2022-09-07T09:16:47.381Z,2.17
2022-09-07T09:19:30.244Z,2.30
2022-09-07T09:22:25.644Z,2.28
2022-09-07T09:24:58.914Z,2.70
2022-09-07T09:27:25.382Z,2.47
2022-09-07T09:29:51.843Z,2.10
2022-09-07T09:32:36.016Z,2.38
2022-09-07T09:35:15.471Z,2.50
2022-09-07T09:37:43.288Z,2.10
2022-09-07T09:40:20.864Z,2.45
2022-09-07T09:42:47.951Z,1.98
2022-09-07T09:45:20.799Z,2.38
2022-09-07T09:47:52.709Z,2.50
2022-09-07T09:53:23.977Z,2.22
2022-09-07T09:55:53.403Z,1.65
2022-09-07T10:04:35.145Z,1.63
2022-09-07T10:07:22.126Z,1.40
2022-09-07T10:09:51.750Z,1.85
2022-09-07T10:12:32.166Z,2.20
2022-09-07T10:15:01.361Z,1.70
2022-09-07T10:17:33.675Z,2.10
2022-09-07T10:20:02.250Z,5.13
2022-09-07T10:22:33.222Z,2.20
2022-09-07T10:25:01.301Z,3.33
2022-09-07T10:27:38.554Z,5.47
2022-09-07T10:30:15.826Z,3.83
2022-09-07T10:32:57.734Z,4.05
2022-09-07T10:35:28.485Z,3.17
2022-09-07T10:38:21.052Z,2.60
2022-09-07T10:40:58.839Z,2.35
2022-09-07T10:43:47.255Z,1.50
2022-09-07T10:49:18.716Z,2.30
2022-09-07T10:52:22.979Z,1.77
2022-09-07T10:55:11.983Z,2.20
2022-09-07T10:57:51.854Z,1.75
2022-09-07T11:00:20.481Z,1.67
2022-09-07T11:03:28.122Z,1.60
2022-09-07T11:06:31.430Z,2.10
2022-09-07T11:09:17.592Z,2.97
2022-09-07T11:12:07.262Z,1.90
2022-09-07T11:14:48.276Z,2.05
2022-09-07T11:17:21.722Z,2.40
2022-09-07T11:20:03.226Z,2.03
2022-09-07T11:22:43.401Z,2.13
2022-09-07T11:25:29.443Z,1.70
2022-09-07T11:28:01.673Z,1.60
2022-09-07T11:30:35.808Z,1.85
2022-09-07T11:33:10.993Z,2.13
2022-09-07T11:35:55.186Z,2.60
2022-09-07T11:38:33.780Z,1.88
2022-09-07T11:41:23.513Z,1.90
2022-09-07T11:44:02.267Z,1.67
2022-09-07T11:46:40.550Z,2.00
2022-09-07T11:49:15.745Z,2.05
2022-09-07T11:51:53.735Z,2.63
2022-09-07T11:54:23.437Z,1.95
2022-09-07T11:56:57.765Z,2.05
2022-09-07T12:00:02.469Z,1.92
2022-09-07T12:03:06.385Z,2.15
2022-09-07T12:06:11.882Z,1.73
2022-09-07T12:09:10.842Z,2.05
2022-09-07T12:12:07.130Z,1.80
2022-09-07T12:14:48.940Z,1.70
2022-09-07T12:17:37.814Z,1.80
2022-09-07T12:20:20.650Z,1.88
2022-09-07T12:23:05.502Z,2.13
2022-09-07T12:25:34.129Z,2.10
2022-09-07T12:28:01.248Z,1.85
2022-09-07T12:30:29.080Z,1.80
2022-09-07T12:32:56.930Z,2.15
2022-09-07T12:35:30.033Z,2.30
2022-09-07T12:37:58.372Z,2.05
2022-09-07T12:40:32.066Z,2.17
2022-09-07T12:43:13.615Z,1.80
2022-09-07T12:45:40.034Z,1.80
2022-09-07T12:48:15.485Z,2.15
2022-09-07T12:50:58.772Z,1.88
2022-09-07T12:53:46.850Z,1.58
2022-09-07T12:56:22.374Z,1.98
2022-09-07T12:59:26.138Z,2.17
2022-09-07T13:02:16.375Z,2.25
2022-09-07T13:04:58.297Z,2.15
2022-09-07T13:07:50.910Z,2.03
2022-09-07T13:10:36.006Z,1.92
2022-09-07T13:13:05.228Z,1.60
2022-09-07T13:15:45.698Z,1.55
2022-09-07T13:18:27.430Z,1.90
2022-09-07T13:21:09.192Z,1.85
2022-09-07T13:23:39.993Z,1.60
2022-09-07T13:26:10.674Z,1.27
2022-09-07T13:28:58.078Z,1.75
2022-09-07T13:31:33.572Z,1.90
2022-09-07T13:34:00.525Z,1.40
2022-09-07T13:36:45.291Z,1.75
2022-09-07T13:39:15.795Z,1.88
2022-09-07T13:41:52.173Z,1.40
2022-09-07T13:44:26.598Z,1.70
2022-09-07T13:47:13.366Z,1.90
2022-09-07T13:49:58.076Z,2.28
2022-09-07T13:52:43.894Z,1.50
2022-09-07T13:55:25.171Z,2.00
2022-09-07T13:57:55.133Z,1.43
2022-09-07T14:00:21.625Z,1.98
2022-09-07T14:02:56.519Z,2.28
2022-09-07T14:05:23.740Z,1.80
2022-09-07T14:07:50.162Z,1.90
2022-09-07T14:10:20.738Z,2.38
2022-09-07T14:12:51.487Z,2.35
2022-09-07T14:15:42.288Z,1.65
2022-09-07T14:18:18.634Z,1.85
2022-09-07T14:20:52.816Z,1.95
2022-09-07T14:23:22.952Z,1.60
2022-09-07T14:26:23.108Z,2.08
2022-09-07T14:28:52.426Z,2.05
2022-09-07T14:31:20.822Z,1.85
2022-09-07T14:33:59.341Z,1.50
2022-09-07T14:36:46.843Z,1.88
2022-09-07T14:39:19.547Z,1.77
2022-09-07T14:41:46.727Z,1.77
2022-09-07T14:44:30.801Z,1.48
2022-09-07T14:46:59.994Z,1.90
2022-09-07T14:49:26.667Z,1.60
2022-09-07T14:51:54.573Z,1.92
2022-09-07T14:54:25.630Z,1.58
2022-09-07T14:57:18.315Z,1.77
2022-09-07T14:59:46.981Z,1.85
2022-09-07T15:02:24.002Z,1.80
2022-09-07T15:05:27.131Z,3.25
2022-09-07T15:07:54.981Z,3.70
2022-09-07T15:10:21.430Z,2.92
2022-09-07T15:12:53.011Z,3.28
2022-09-07T15:15:21.765Z,2.40
2022-09-07T15:17:48.907Z,3.00
2022-09-07T15:20:43.007Z,3.05
2022-09-07T15:23:15.270Z,3.47
2022-09-07T15:25:45.367Z,2.95
2022-09-07T15:34:03.107Z,3.47
2022-09-07T15:36:31.958Z,2.00
2022-09-07T15:39:00.530Z,2.50
2022-09-07T15:41:28.503Z,1.98
2022-09-07T15:43:56.779Z,1.75
2022-09-07T15:46:25.106Z,2.30
2022-09-07T15:48:55.712Z,2.08
2022-09-07T15:54:13.117Z,2.50
2022-09-07T15:56:42.323Z,3.05
2022-09-07T15:59:10.069Z,3.08
2022-09-07T16:01:52.526Z,2.45
2022-09-07T16:06:48.236Z,2.70
2022-09-07T16:09:15.538Z,2.33
2022-09-07T16:11:41.999Z,2.85
2022-09-07T16:14:11.689Z,3.15
2022-09-07T16:19:25.511Z,3.20
2022-09-07T16:21:51.955Z,2.50
2022-09-07T16:24:18.649Z,2.65
2022-09-07T16:26:45.111Z,3.33
2022-09-07T16:29:11.719Z,2.88
2022-09-07T16:31:38.439Z,2.92
2022-09-07T16:34:05.454Z,2.83
2022-09-07T16:36:32.065Z,3.45
2022-09-07T16:39:00.533Z,2.97
2022-09-07T16:41:31.907Z,3.10
2022-09-07T16:43:59.078Z,4.05
2022-09-07T16:46:28.391Z,3.33
2022-09-07T16:48:55.240Z,3.15
2022-09-07T16:51:23.066Z,3.50
2022-09-07T16:53:51.479Z,3.08
2022-09-07T16:56:20.373Z,2.92
2022-09-07T16:58:49.718Z,3.50
2022-09-07T17:01:19.261Z,3.47
2022-09-07T17:03:46.548Z,4.40
2022-09-07T17:06:14.901Z,4.65
2022-09-07T17:08:42.386Z,4.40
2022-09-07T17:11:11.564Z,4.32
2022-09-07T17:13:39.638Z,3.60
2022-09-07T17:16:19.946Z,3.67
2022-09-07T17:21:36.453Z,3.13
2022-09-07T17:24:05.098Z,3.03
2022-09-07T17:26:32.157Z,3.60
2022-09-07T17:29:00.769Z,3.22
2022-09-07T17:34:16.616Z,3.10
2022-09-07T17:36:43.125Z,4.10
2022-09-07T17:39:18.929Z,2.92
2022-09-07T17:41:47.656Z,2.88
2022-09-07T17:44:14.253Z,10.95
2022-09-07T17:46:40.876Z,14.02
2022-09-07T17:49:11.158Z,8.90
2022-09-07T17:51:38.010Z,31.23
2022-09-07T17:54:09.997Z,10.07
2022-09-07T17:56:40.054Z,5.13
2022-09-07T18:01:56.524Z,3.95
2022-09-07T18:04:23.481Z,4.47
2022-09-07T18:06:50.430Z,3.85
2022-09-07T18:09:17.345Z,4.07
2022-09-07T18:11:45.978Z,3.58
2022-09-07T18:14:14.726Z,3.60
2022-09-07T18:16:43.385Z,3.17
2022-09-07T18:19:11.082Z,3.45
2022-09-07T18:21:38.022Z,3.90
2022-09-07T18:24:07.714Z,3.08
2022-09-07T18:26:38.350Z,3.60
2022-09-07T18:29:13.150Z,4.38
2022-09-07T18:31:52.286Z,3.72
2022-09-07T18:34:18.785Z,3.53
2022-09-07T18:36:45.216Z,3.72
2022-09-07T18:39:13.152Z,3.95
2022-09-07T18:41:40.875Z,3.15
2022-09-07T18:45:27.335Z,3.63
2022-09-07T18:46:54.391Z,3.90
2022-09-07T18:49:20.885Z,3.00
2022-09-07T18:54:33.800Z,3.28
2022-09-07T18:57:00.350Z,3.30
2022-09-07T18:59:26.858Z,3.38
2022-09-07T19:01:54.111Z,2.72
2022-09-07T19:04:21.167Z,3.00
2022-09-07T19:06:47.955Z,2.95
2022-09-07T19:09:14.445Z,2.97
2022-09-07T19:11:42.180Z,3.03
2022-09-07T19:14:08.852Z,3.10
2022-09-07T19:16:35.824Z,3.30
2022-09-07T19:19:05.510Z,2.58
2022-09-07T19:21:37.373Z,3.30
2022-09-07T19:24:05.077Z,2.60
2022-09-07T19:26:43.194Z,2.83
2022-09-07T19:29:15.686Z,3.03
2022-09-07T19:32:08.565Z,2.60
2022-09-07T19:34:40.829Z,3.10
2022-09-07T19:37:09.326Z,2.72
2022-09-07T19:39:35.952Z,2.50
2022-09-07T19:42:04.393Z,2.70
2022-09-07T19:44:31.008Z,2.80
2022-09-07T19:46:57.532Z,2.90
2022-09-07T19:49:24.057Z,2.95
2022-09-07T19:51:51.903Z,2.50
2022-09-07T19:54:19.180Z,2.58
2022-09-07T19:56:46.030Z,3.63
2022-09-07T19:59:13.204Z,3.35
2022-09-07T20:01:43.709Z,2.80
2022-09-07T20:04:16.006Z,3.17
2022-09-07T20:06:46.308Z,3.75
2022-09-07T20:09:15.905Z,3.47
2022-09-07T20:11:46.568Z,3.00
2022-09-07T20:14:14.651Z,2.92
2022-09-07T20:16:41.763Z,4.10
2022-09-07T20:19:10.371Z,2.85
2022-09-07T20:21:36.935Z,3.00
2022-09-07T20:24:04.255Z,2.70
2022-09-07T20:26:32.236Z,2.53
2022-09-07T20:29:23.341Z,2.88
2022-09-07T20:31:46.613Z,2.40
2022-09-07T20:34:13.249Z,2.47
2022-09-07T20:36:40.039Z,2.70
2022-09-07T20:39:06.553Z,2.60
2022-09-07T20:41:34.205Z,3.30
2022-09-07T20:44:03.542Z,2.88
2022-09-07T20:46:30.868Z,2.92
2022-09-07T20:48:57.810Z,3.53
2022-09-07T20:51:24.368Z,3.20
2022-09-07T20:53:51.552Z,3.45
2022-09-07T20:56:23.182Z,2.72
2022-09-07T20:58:54.862Z,3.15
2022-09-07T21:01:21.832Z,3.10
2022-09-07T21:03:51.349Z,3.15
2022-09-07T21:06:19.151Z,2.28
2022-09-07T21:08:46.798Z,3.25
2022-09-07T21:11:15.140Z,2.40
2022-09-07T21:13:41.875Z,2.67
2022-09-07T21:16:11.679Z,2.60
2022-09-07T21:18:39.297Z,2.85
2022-09-07T21:21:21.883Z,2.72
2022-09-07T21:23:48.966Z,3.13
2022-09-07T21:26:20.855Z,3.53
2022-09-07T21:28:47.340Z,3.00
2022-09-07T21:31:13.791Z,2.85
2022-09-07T21:33:40.239Z,2.72
2022-09-07T21:36:12.308Z,3.15
2022-09-07T21:38:40.476Z,2.92
2022-09-07T21:41:11.668Z,2.80
2022-09-07T21:43:38.459Z,3.67
2022-09-07T21:46:09.992Z,3.55
2022-09-07T21:48:36.797Z,3.63
2022-09-07T21:51:04.336Z,3.83
2022-09-07T21:53:30.991Z,3.58
2022-09-07T21:56:02.545Z,3.58
2022-09-07T21:58:29.822Z,4.88
2022-09-07T22:00:57.037Z,3.88
2022-09-07T22:03:25.124Z,3.40
2022-09-07T22:05:51.635Z,4.40
2022-09-07T22:08:19.029Z,4.60
2022-09-07T22:10:46.506Z,4.00
2022-09-07T22:13:13.060Z,5.40
2022-09-07T22:15:40.916Z,4.70
2022-09-07T22:18:12.695Z,5.38
2022-09-07T22:20:40.074Z,5.18
2022-09-07T22:23:06.510Z,5.55
2022-09-07T22:25:33.435Z,4.50
2022-09-07T22:27:59.952Z,5.40
2022-09-07T22:30:26.764Z,3.90
2022-09-07T22:32:53.282Z,3.85
2022-09-07T22:35:20.654Z,3.20
2022-09-07T22:37:47.272Z,3.40
2022-09-07T22:40:14.765Z,2.92
2022-09-07T22:42:41.847Z,2.80
2022-09-07T22:45:08.733Z,3.17
2022-09-07T22:47:35.151Z,2.70
2022-09-07T22:50:01.664Z,3.28
2022-09-07T22:52:28.184Z,3.15
2022-09-07T22:54:54.598Z,3.20
2022-09-07T22:57:21.066Z,2.33
2022-09-07T22:59:47.455Z,1.98
2022-09-07T23:02:13.887Z,2.40
2022-09-07T23:04:40.388Z,1.90
2022-09-07T23:07:07.700Z,2.00
2022-09-07T23:09:34.443Z,1.80
2022-09-07T23:12:00.946Z,2.30
2022-09-07T23:14:27.576Z,2.17
2022-09-07T23:16:54.030Z,1.88
2022-09-07T23:19:20.865Z,2.13
2022-09-07T23:21:47.797Z,1.70
2022-09-07T23:24:16.736Z,1.50
2022-09-07T23:26:43.262Z,1.70
2022-09-07T23:29:11.688Z,1.60
2022-09-07T23:31:38.341Z,1.80
2022-09-07T23:34:04.948Z,1.75
2022-09-07T23:36:31.494Z,1.80
2022-09-07T23:38:59.468Z,1.98
2022-09-07T23:41:27.258Z,1.73
2022-09-07T23:43:54.827Z,1.67
2022-09-07T23:46:21.601Z,2.30
2022-09-07T23:48:49.021Z,1.92
2022-09-07T23:51:19.954Z,2.00
2022-09-07T23:53:49.579Z,2.38
2022-09-07T23:56:16.061Z,2.10
2022-09-07T23:58:42.564Z,2.33
